sensor_id;sensor_type;location;lat;lon;timestamp;P1;durP1;ratioP1;P2;durP2;ratioP2
42478;SDS011;28110;47.080;9.476;2023-07-02T00:02:06;5.83;;;3.30;;
42478;SDS011;28110;47.080;9.476;2023-07-02T00:04:32;4.05;;;3.15;;
42478;SDS011;28110;47.080;9.476;2023-07-02T00:06:58;3.57;;;2.80;;
42478;SDS011;28110;47.080;9.476;2023-07-02T00:09:23;5.00;;;3.20;;
42478;SDS011;28110;47.080;9.476;2023-07-02T00:11:49;3.38;;;2.80;;
42478;SDS011;28110;47.080;9.476;2023-07-02T00:14:14;4.50;;;2.70;;
42478;SDS011;28110;47.080;9.476;2023-07-02T00:16:43;4.83;;;3.03;;
42478;SDS011;28110;47.080;9.476;2023-07-02T00:19:11;3.55;;;2.70;;
42478;SDS011;28110;47.080;9.476;2023-07-02T00:21:40;3.53;;;2.70;;
42478;SDS011;28110;47.080;9.476;2023-07-02T00:24:06;4.22;;;3.00;;
42478;SDS011;28110;47.080;9.476;2023-07-02T00:26:34;4.07;;;2.83;;
42478;SDS011;28110;47.080;9.476;2023-07-02T00:29:00;5.17;;;2.83;;
42478;SDS011;28110;47.080;9.476;2023-07-02T00:31:28;4.00;;;2.70;;
42478;SDS011;28110;47.080;9.476;2023-07-02T00:33:54;7.03;;;3.05;;
42478;SDS011;28110;47.080;9.476;2023-07-02T00:36:19;5.47;;;2.93;;
42478;SDS011;28110;47.080;9.476;2023-07-02T00:38:46;5.23;;;3.27;;
42478;SDS011;28110;47.080;9.476;2023-07-02T00:41:13;4.75;;;3.13;;
42478;SDS011;28110;47.080;9.476;2023-07-02T00:43:38;4.60;;;3.17;;
42478;SDS011;28110;47.080;9.476;2023-07-02T00:46:14;8.13;;;3.83;;
42478;SDS011;28110;47.080;9.476;2023-07-02T00:48:48;4.82;;;3.55;;
42478;SDS011;28110;47.080;9.476;2023-07-02T00:51:15;4.90;;;3.00;;
42478;SDS011;28110;47.080;9.476;2023-07-02T00:53:45;4.80;;;3.40;;
42478;SDS011;28110;47.080;9.476;2023-07-02T00:56:12;4.03;;;3.03;;
42478;SDS011;28110;47.080;9.476;2023-07-02T00:58:39;3.88;;;2.97;;
42478;SDS011;28110;47.080;9.476;2023-07-02T01:03:58;4.97;;;2.90;;
42478;SDS011;28110;47.080;9.476;2023-07-02T01:06:29;4.00;;;2.95;;
42478;SDS011;28110;47.080;9.476;2023-07-02T01:09:00;6.30;;;3.00;;
42478;SDS011;28110;47.080;9.476;2023-07-02T01:11:46;4.03;;;3.05;;
42478;SDS011;28110;47.080;9.476;2023-07-02T01:14:17;3.63;;;2.80;;
42478;SDS011;28110;47.080;9.476;2023-07-02T01:16:53;5.18;;;2.63;;
42478;SDS011;28110;47.080;9.476;2023-07-02T01:22:09;4.17;;;2.30;;
42478;SDS011;28110;47.080;9.476;2023-07-02T01:24:38;3.67;;;2.45;;
42478;SDS011;28110;47.080;9.476;2023-07-02T01:27:04;2.92;;;2.28;;
42478;SDS011;28110;47.080;9.476;2023-07-02T01:29:30;3.72;;;2.70;;
42478;SDS011;28110;47.080;9.476;2023-07-02T01:31:56;3.17;;;2.40;;
42478;SDS011;28110;47.080;9.476;2023-07-02T01:34:22;4.05;;;2.40;;
42478;SDS011;28110;47.080;9.476;2023-07-02T01:36:48;5.90;;;2.35;;
42478;SDS011;28110;47.080;9.476;2023-07-02T01:39:13;3.80;;;2.90;;
42478;SDS011;28110;47.080;9.476;2023-07-02T01:41:49;4.97;;;2.67;;
42478;SDS011;28110;47.080;9.476;2023-07-02T01:44:19;7.38;;;2.70;;
42478;SDS011;28110;47.080;9.476;2023-07-02T01:46:45;3.73;;;2.50;;
42478;SDS011;28110;47.080;9.476;2023-07-02T01:49:14;2.95;;;2.50;;
42478;SDS011;28110;47.080;9.476;2023-07-02T01:51:40;2.85;;;2.50;;
42478;SDS011;28110;47.080;9.476;2023-07-02T01:54:05;4.07;;;2.60;;
42478;SDS011;28110;47.080;9.476;2023-07-02T01:56:31;4.30;;;2.45;;
42478;SDS011;28110;47.080;9.476;2023-07-02T01:58:56;3.05;;;2.38;;
42478;SDS011;28110;47.080;9.476;2023-07-02T02:01:23;3.92;;;2.35;;
42478;SDS011;28110;47.080;9.476;2023-07-02T02:03:48;2.80;;;2.23;;
42478;SDS011;28110;47.080;9.476;2023-07-02T02:06:14;3.10;;;2.30;;
42478;SDS011;28110;47.080;9.476;2023-07-02T02:08:39;3.90;;;2.33;;
42478;SDS011;28110;47.080;9.476;2023-07-02T02:11:05;3.20;;;2.60;;
42478;SDS011;28110;47.080;9.476;2023-07-02T02:13:30;2.73;;;2.10;;
42478;SDS011;28110;47.080;9.476;2023-07-02T02:15:56;4.10;;;2.45;;
42478;SDS011;28110;47.080;9.476;2023-07-02T02:18:22;3.03;;;2.42;;
42478;SDS011;28110;47.080;9.476;2023-07-02T02:20:47;3.58;;;2.10;;
42478;SDS011;28110;47.080;9.476;2023-07-02T02:23:13;3.83;;;2.10;;
42478;SDS011;28110;47.080;9.476;2023-07-02T02:25:38;3.43;;;2.20;;
42478;SDS011;28110;47.080;9.476;2023-07-02T02:28:04;2.53;;;2.03;;
42478;SDS011;28110;47.080;9.476;2023-07-02T02:30:30;3.83;;;2.20;;
42478;SDS011;28110;47.080;9.476;2023-07-02T02:32:55;4.50;;;2.40;;
42478;SDS011;28110;47.080;9.476;2023-07-02T02:35:21;6.28;;;2.53;;
42478;SDS011;28110;47.080;9.476;2023-07-02T02:37:47;2.50;;;2.07;;
42478;SDS011;28110;47.080;9.476;2023-07-02T02:40:12;2.75;;;2.22;;
42478;SDS011;28110;47.080;9.476;2023-07-02T02:42:38;3.43;;;2.30;;
42478;SDS011;28110;47.080;9.476;2023-07-02T02:45:04;2.95;;;1.83;;
42478;SDS011;28110;47.080;9.476;2023-07-02T02:47:30;2.75;;;2.17;;
42478;SDS011;28110;47.080;9.476;2023-07-02T02:49:56;2.00;;;1.80;;
42478;SDS011;28110;47.080;9.476;2023-07-02T02:52:21;3.77;;;1.90;;
42478;SDS011;28110;47.080;9.476;2023-07-02T02:54:47;2.22;;;1.83;;
42478;SDS011;28110;47.080;9.476;2023-07-02T02:57:12;2.90;;;2.17;;
42478;SDS011;28110;47.080;9.476;2023-07-02T02:59:38;3.17;;;2.00;;
42478;SDS011;28110;47.080;9.476;2023-07-02T03:02:04;5.20;;;2.10;;
42478;SDS011;28110;47.080;9.476;2023-07-02T03:04:30;5.25;;;2.20;;
42478;SDS011;28110;47.080;9.476;2023-07-02T03:06:55;2.50;;;1.63;;
42478;SDS011;28110;47.080;9.476;2023-07-02T03:09:21;3.90;;;2.20;;
42478;SDS011;28110;47.080;9.476;2023-07-02T03:11:46;2.20;;;1.67;;
42478;SDS011;28110;47.080;9.476;2023-07-02T03:14:12;2.95;;;2.15;;
42478;SDS011;28110;47.080;9.476;2023-07-02T03:16:39;1.87;;;1.70;;
42478;SDS011;28110;47.080;9.476;2023-07-02T03:19:04;3.28;;;2.20;;
42478;SDS011;28110;47.080;9.476;2023-07-02T03:21:30;3.27;;;1.73;;
42478;SDS011;28110;47.080;9.476;2023-07-02T03:23:57;5.07;;;2.20;;
42478;SDS011;28110;47.080;9.476;2023-07-02T03:26:22;2.57;;;1.90;;
42478;SDS011;28110;47.080;9.476;2023-07-02T03:28:49;2.53;;;1.83;;
42478;SDS011;28110;47.080;9.476;2023-07-02T03:31:14;4.37;;;2.00;;
42478;SDS011;28110;47.080;9.476;2023-07-02T03:33:40;1.70;;;1.60;;
42478;SDS011;28110;47.080;9.476;2023-07-02T03:36:05;4.20;;;2.00;;
42478;SDS011;28110;47.080;9.476;2023-07-02T03:38:31;2.03;;;1.50;;
42478;SDS011;28110;47.080;9.476;2023-07-02T03:40:57;3.20;;;1.77;;
42478;SDS011;28110;47.080;9.476;2023-07-02T03:43:22;2.27;;;1.77;;
42478;SDS011;28110;47.080;9.476;2023-07-02T03:45:49;2.50;;;1.80;;
42478;SDS011;28110;47.080;9.476;2023-07-02T03:48:16;2.13;;;1.75;;
42478;SDS011;28110;47.080;9.476;2023-07-02T03:50:42;2.37;;;1.77;;
42478;SDS011;28110;47.080;9.476;2023-07-02T03:53:07;2.33;;;1.90;;
42478;SDS011;28110;47.080;9.476;2023-07-02T03:55:33;2.63;;;1.97;;
42478;SDS011;28110;47.080;9.476;2023-07-02T03:57:59;3.15;;;1.77;;
42478;SDS011;28110;47.080;9.476;2023-07-02T04:00:24;2.77;;;2.20;;
42478;SDS011;28110;47.080;9.476;2023-07-02T04:02:50;3.23;;;2.10;;
42478;SDS011;28110;47.080;9.476;2023-07-02T04:05:15;5.50;;;1.98;;
42478;SDS011;28110;47.080;9.476;2023-07-02T04:07:41;3.40;;;1.80;;
42478;SDS011;28110;47.080;9.476;2023-07-02T04:10:07;3.40;;;2.10;;
42478;SDS011;28110;47.080;9.476;2023-07-02T04:12:33;2.47;;;2.00;;
42478;SDS011;28110;47.080;9.476;2023-07-02T04:14:58;3.28;;;1.90;;
42478;SDS011;28110;47.080;9.476;2023-07-02T04:17:24;5.07;;;2.00;;
42478;SDS011;28110;47.080;9.476;2023-07-02T04:19:49;5.10;;;2.50;;
42478;SDS011;28110;47.080;9.476;2023-07-02T04:22:15;3.15;;;2.33;;
42478;SDS011;28110;47.080;9.476;2023-07-02T04:24:40;4.43;;;2.30;;
42478;SDS011;28110;47.080;9.476;2023-07-02T04:27:06;2.25;;;2.05;;
42478;SDS011;28110;47.080;9.476;2023-07-02T04:29:32;2.43;;;2.10;;
42478;SDS011;28110;47.080;9.476;2023-07-02T04:31:57;3.85;;;2.00;;
42478;SDS011;28110;47.080;9.476;2023-07-02T04:34:23;3.27;;;2.50;;
42478;SDS011;28110;47.080;9.476;2023-07-02T04:36:49;4.32;;;2.95;;
42478;SDS011;28110;47.080;9.476;2023-07-02T04:39:14;4.50;;;2.80;;
42478;SDS011;28110;47.080;9.476;2023-07-02T04:41:40;4.80;;;2.43;;
42478;SDS011;28110;47.080;9.476;2023-07-02T04:44:05;5.03;;;2.30;;
42478;SDS011;28110;47.080;9.476;2023-07-02T04:46:31;3.20;;;2.47;;
42478;SDS011;28110;47.080;9.476;2023-07-02T04:48:56;3.23;;;2.23;;
42478;SDS011;28110;47.080;9.476;2023-07-02T04:51:22;4.67;;;2.07;;
42478;SDS011;28110;47.080;9.476;2023-07-02T04:53:47;3.85;;;2.45;;
42478;SDS011;28110;47.080;9.476;2023-07-02T04:56:13;3.17;;;2.40;;
42478;SDS011;28110;47.080;9.476;2023-07-02T04:58:38;2.83;;;2.27;;
42478;SDS011;28110;47.080;9.476;2023-07-02T05:01:04;5.18;;;2.55;;
42478;SDS011;28110;47.080;9.476;2023-07-02T05:03:29;4.67;;;2.53;;
42478;SDS011;28110;47.080;9.476;2023-07-02T05:05:55;4.10;;;2.77;;
42478;SDS011;28110;47.080;9.476;2023-07-02T05:08:21;8.10;;;3.03;;
42478;SDS011;28110;47.080;9.476;2023-07-02T05:10:46;7.17;;;2.90;;
42478;SDS011;28110;47.080;9.476;2023-07-02T05:13:12;3.47;;;2.70;;
42478;SDS011;28110;47.080;9.476;2023-07-02T05:15:37;3.07;;;2.23;;
42478;SDS011;28110;47.080;9.476;2023-07-02T05:18:03;3.97;;;2.43;;
42478;SDS011;28110;47.080;9.476;2023-07-02T05:20:28;3.80;;;2.30;;
42478;SDS011;28110;47.080;9.476;2023-07-02T05:22:54;3.15;;;2.55;;
42478;SDS011;28110;47.080;9.476;2023-07-02T05:25:19;2.60;;;2.23;;
42478;SDS011;28110;47.080;9.476;2023-07-02T05:27:45;5.17;;;2.40;;
42478;SDS011;28110;47.080;9.476;2023-07-02T05:30:10;3.55;;;2.25;;
42478;SDS011;28110;47.080;9.476;2023-07-02T05:32:36;4.03;;;2.50;;
42478;SDS011;28110;47.080;9.476;2023-07-02T05:35:04;3.90;;;2.63;;
42478;SDS011;28110;47.080;9.476;2023-07-02T05:37:30;4.57;;;2.55;;
42478;SDS011;28110;47.080;9.476;2023-07-02T05:39:55;3.70;;;2.70;;
42478;SDS011;28110;47.080;9.476;2023-07-02T05:42:21;4.87;;;2.60;;
42478;SDS011;28110;47.080;9.476;2023-07-02T05:44:46;3.22;;;2.40;;
42478;SDS011;28110;47.080;9.476;2023-07-02T05:47:12;4.33;;;2.67;;
42478;SDS011;28110;47.080;9.476;2023-07-02T05:49:37;3.27;;;2.37;;
42478;SDS011;28110;47.080;9.476;2023-07-02T05:52:03;3.83;;;2.65;;
42478;SDS011;28110;47.080;9.476;2023-07-02T05:54:28;3.50;;;2.90;;
42478;SDS011;28110;47.080;9.476;2023-07-02T05:56:54;4.47;;;2.80;;
42478;SDS011;28110;47.080;9.476;2023-07-02T05:59:19;4.83;;;2.43;;
42478;SDS011;28110;47.080;9.476;2023-07-02T06:01:45;3.73;;;2.27;;
42478;SDS011;28110;47.080;9.476;2023-07-02T06:04:10;2.90;;;2.40;;
42478;SDS011;28110;47.080;9.476;2023-07-02T06:06:36;4.93;;;2.40;;
42478;SDS011;28110;47.080;9.476;2023-07-02T06:09:01;2.60;;;2.20;;
42478;SDS011;28110;47.080;9.476;2023-07-02T06:11:28;3.83;;;2.88;;
42478;SDS011;28110;47.080;9.476;2023-07-02T06:13:54;4.17;;;2.37;;
42478;SDS011;28110;47.080;9.476;2023-07-02T06:16:20;3.92;;;2.60;;
42478;SDS011;28110;47.080;9.476;2023-07-02T06:18:45;3.67;;;2.80;;
42478;SDS011;28110;47.080;9.476;2023-07-02T06:21:11;3.72;;;3.28;;
42478;SDS011;28110;47.080;9.476;2023-07-02T06:23:43;4.37;;;3.50;;
42478;SDS011;28110;47.080;9.476;2023-07-02T06:26:09;4.00;;;3.20;;
42478;SDS011;28110;47.080;9.476;2023-07-02T06:28:35;4.07;;;2.95;;
42478;SDS011;28110;47.080;9.476;2023-07-02T06:31:00;6.30;;;3.40;;
42478;SDS011;28110;47.080;9.476;2023-07-02T06:33:26;5.35;;;3.60;;
42478;SDS011;28110;47.080;9.476;2023-07-02T06:35:52;6.37;;;3.30;;
42478;SDS011;28110;47.080;9.476;2023-07-02T06:38:17;6.33;;;3.30;;
42478;SDS011;28110;47.080;9.476;2023-07-02T06:40:43;6.17;;;3.57;;
42478;SDS011;28110;47.080;9.476;2023-07-02T06:43:08;5.20;;;3.37;;
42478;SDS011;28110;47.080;9.476;2023-07-02T06:45:34;6.70;;;3.40;;
42478;SDS011;28110;47.080;9.476;2023-07-02T06:48:00;5.80;;;3.67;;
42478;SDS011;28110;47.080;9.476;2023-07-02T06:50:25;3.92;;;3.20;;
42478;SDS011;28110;47.080;9.476;2023-07-02T06:52:51;6.47;;;3.20;;
42478;SDS011;28110;47.080;9.476;2023-07-02T06:55:17;4.95;;;3.33;;
42478;SDS011;28110;47.080;9.476;2023-07-02T06:57:43;5.10;;;3.43;;
42478;SDS011;28110;47.080;9.476;2023-07-02T07:00:12;4.00;;;3.58;;
42478;SDS011;28110;47.080;9.476;2023-07-02T07:02:38;4.28;;;3.10;;
42478;SDS011;28110;47.080;9.476;2023-07-02T07:05:04;6.50;;;3.57;;
42478;SDS011;28110;47.080;9.476;2023-07-02T07:07:30;6.90;;;3.63;;
42478;SDS011;28110;47.080;9.476;2023-07-02T07:09:56;6.85;;;3.85;;
42478;SDS011;28110;47.080;9.476;2023-07-02T07:12:22;5.80;;;3.70;;
42478;SDS011;28110;47.080;9.476;2023-07-02T07:14:47;5.90;;;3.70;;
42478;SDS011;28110;47.080;9.476;2023-07-02T07:17:13;5.43;;;3.00;;
42478;SDS011;28110;47.080;9.476;2023-07-02T07:19:38;6.53;;;3.10;;
42478;SDS011;28110;47.080;9.476;2023-07-02T07:22:04;4.17;;;3.10;;
42478;SDS011;28110;47.080;9.476;2023-07-02T07:24:29;5.77;;;3.00;;
42478;SDS011;28110;47.080;9.476;2023-07-02T07:26:55;4.15;;;2.97;;
42478;SDS011;28110;47.080;9.476;2023-07-02T07:29:21;4.60;;;2.93;;
42478;SDS011;28110;47.080;9.476;2023-07-02T07:31:47;4.32;;;2.95;;
42478;SDS011;28110;47.080;9.476;2023-07-02T07:34:12;4.27;;;2.80;;
42478;SDS011;28110;47.080;9.476;2023-07-02T07:36:38;4.85;;;2.80;;
42478;SDS011;28110;47.080;9.476;2023-07-02T07:39:03;3.70;;;2.80;;
42478;SDS011;28110;47.080;9.476;2023-07-02T07:41:29;3.40;;;2.50;;
42478;SDS011;28110;47.080;9.476;2023-07-02T07:43:55;2.70;;;2.40;;
42478;SDS011;28110;47.080;9.476;2023-07-02T07:46:20;2.97;;;2.43;;
42478;SDS011;28110;47.080;9.476;2023-07-02T07:48:46;3.77;;;2.30;;
42478;SDS011;28110;47.080;9.476;2023-07-02T07:51:11;2.77;;;2.20;;
42478;SDS011;28110;47.080;9.476;2023-07-02T07:53:37;2.83;;;2.20;;
42478;SDS011;28110;47.080;9.476;2023-07-02T07:56:04;3.55;;;1.98;;
42478;SDS011;28110;47.080;9.476;2023-07-02T07:58:30;2.53;;;2.17;;
42478;SDS011;28110;47.080;9.476;2023-07-02T08:00:57;3.50;;;2.08;;
42478;SDS011;28110;47.080;9.476;2023-07-02T08:03:22;3.90;;;2.90;;
42478;SDS011;28110;47.080;9.476;2023-07-02T08:05:48;3.53;;;3.07;;
42478;SDS011;28110;47.080;9.476;2023-07-02T08:08:13;4.32;;;3.35;;
42478;SDS011;28110;47.080;9.476;2023-07-02T08:10:39;4.63;;;3.22;;
42478;SDS011;28110;47.080;9.476;2023-07-02T08:13:04;4.10;;;2.93;;
42478;SDS011;28110;47.080;9.476;2023-07-02T08:15:30;4.80;;;3.37;;
42478;SDS011;28110;47.080;9.476;2023-07-02T08:17:55;6.22;;;2.88;;
42478;SDS011;28110;47.080;9.476;2023-07-02T08:20:23;4.28;;;2.95;;
42478;SDS011;28110;47.080;9.476;2023-07-02T08:22:49;4.47;;;2.80;;
42478;SDS011;28110;47.080;9.476;2023-07-02T08:25:16;3.53;;;2.72;;
42478;SDS011;28110;47.080;9.476;2023-07-02T08:27:42;4.30;;;2.50;;
42478;SDS011;28110;47.080;9.476;2023-07-02T08:30:08;3.90;;;2.77;;
42478;SDS011;28110;47.080;9.476;2023-07-02T08:32:34;3.35;;;2.70;;
42478;SDS011;28110;47.080;9.476;2023-07-02T08:35:00;3.33;;;2.67;;
42478;SDS011;28110;47.080;9.476;2023-07-02T08:37:25;3.35;;;2.70;;
42478;SDS011;28110;47.080;9.476;2023-07-02T08:39:51;4.00;;;2.97;;
42478;SDS011;28110;47.080;9.476;2023-07-02T08:42:16;5.03;;;3.03;;
42478;SDS011;28110;47.080;9.476;2023-07-02T08:44:45;3.95;;;2.92;;
42478;SDS011;28110;47.080;9.476;2023-07-02T08:47:12;3.95;;;3.05;;
42478;SDS011;28110;47.080;9.476;2023-07-02T08:49:39;3.53;;;3.00;;
42478;SDS011;28110;47.080;9.476;2023-07-02T08:52:06;4.50;;;2.85;;
42478;SDS011;28110;47.080;9.476;2023-07-02T08:54:32;3.30;;;2.47;;
42478;SDS011;28110;47.080;9.476;2023-07-02T08:56:57;3.63;;;2.67;;
42478;SDS011;28110;47.080;9.476;2023-07-02T08:59:23;3.73;;;2.63;;
42478;SDS011;28110;47.080;9.476;2023-07-02T09:01:49;4.45;;;2.95;;
42478;SDS011;28110;47.080;9.476;2023-07-02T09:07:06;3.67;;;2.87;;
42478;SDS011;28110;47.080;9.476;2023-07-02T09:09:44;5.15;;;3.70;;
42478;SDS011;28110;47.080;9.476;2023-07-02T09:12:21;4.90;;;3.40;;
42478;SDS011;28110;47.080;9.476;2023-07-02T09:14:47;4.57;;;3.50;;
42478;SDS011;28110;47.080;9.476;2023-07-02T09:17:29;5.68;;;3.30;;
42478;SDS011;28110;47.080;9.476;2023-07-02T09:19:55;5.43;;;3.13;;
42478;SDS011;28110;47.080;9.476;2023-07-02T09:22:22;4.88;;;3.50;;
42478;SDS011;28110;47.080;9.476;2023-07-02T09:24:54;4.88;;;3.30;;
42478;SDS011;28110;47.080;9.476;2023-07-02T09:27:32;4.00;;;3.33;;
42478;SDS011;28110;47.080;9.476;2023-07-02T09:30:09;5.00;;;3.10;;
42478;SDS011;28110;47.080;9.476;2023-07-02T09:32:35;6.65;;;3.20;;
42478;SDS011;28110;47.080;9.476;2023-07-02T09:35:01;4.68;;;3.50;;
42478;SDS011;28110;47.080;9.476;2023-07-02T09:37:27;3.80;;;2.70;;
42478;SDS011;28110;47.080;9.476;2023-07-02T09:39:53;3.97;;;3.00;;
42478;SDS011;28110;47.080;9.476;2023-07-02T09:42:20;8.50;;;3.20;;
42478;SDS011;28110;47.080;9.476;2023-07-02T09:44:46;3.58;;;3.00;;
42478;SDS011;28110;47.080;9.476;2023-07-02T09:47:13;4.30;;;2.80;;
42478;SDS011;28110;47.080;9.476;2023-07-02T09:49:49;3.35;;;2.80;;
42478;SDS011;28110;47.080;9.476;2023-07-02T09:52:19;3.83;;;3.05;;
42478;SDS011;28110;47.080;9.476;2023-07-02T09:54:45;4.47;;;3.22;;
42478;SDS011;28110;47.080;9.476;2023-07-02T09:57:11;4.97;;;3.07;;
42478;SDS011;28110;47.080;9.476;2023-07-02T09:59:37;5.60;;;3.00;;
42478;SDS011;28110;47.080;9.476;2023-07-02T10:02:04;4.32;;;2.97;;
42478;SDS011;28110;47.080;9.476;2023-07-02T10:04:40;6.40;;;3.05;;
42478;SDS011;28110;47.080;9.476;2023-07-02T10:07:10;3.67;;;2.83;;
42478;SDS011;28110;47.080;9.476;2023-07-02T10:12:14;3.95;;;2.83;;
42478;SDS011;28110;47.080;9.476;2023-07-02T10:14:41;3.58;;;2.50;;
42478;SDS011;28110;47.080;9.476;2023-07-02T10:17:07;4.15;;;2.30;;
42478;SDS011;28110;47.080;9.476;2023-07-02T10:19:33;5.90;;;2.20;;
42478;SDS011;28110;47.080;9.476;2023-07-02T10:22:02;3.87;;;2.10;;
42478;SDS011;28110;47.080;9.476;2023-07-02T10:24:28;4.80;;;2.42;;
42478;SDS011;28110;47.080;9.476;2023-07-02T10:26:54;4.07;;;2.47;;
42478;SDS011;28110;47.080;9.476;2023-07-02T10:29:24;5.05;;;2.90;;
42478;SDS011;28110;47.080;9.476;2023-07-02T10:31:53;5.85;;;3.00;;
42478;SDS011;28110;47.080;9.476;2023-07-02T10:34:29;4.38;;;3.10;;
42478;SDS011;28110;47.080;9.476;2023-07-02T10:36:56;3.60;;;2.45;;
42478;SDS011;28110;47.080;9.476;2023-07-02T10:39:22;4.13;;;2.90;;
42478;SDS011;28110;47.080;9.476;2023-07-02T10:41:47;4.28;;;2.78;;
42478;SDS011;28110;47.080;9.476;2023-07-02T10:44:14;4.43;;;2.73;;
42478;SDS011;28110;47.080;9.476;2023-07-02T10:46:46;3.40;;;2.30;;
42478;SDS011;28110;47.080;9.476;2023-07-02T10:49:13;4.68;;;2.80;;
42478;SDS011;28110;47.080;9.476;2023-07-02T10:51:42;3.63;;;2.50;;
42478;SDS011;28110;47.080;9.476;2023-07-02T10:54:08;4.40;;;3.08;;
42478;SDS011;28110;47.080;9.476;2023-07-02T10:56:34;4.93;;;3.33;;
42478;SDS011;28110;47.080;9.476;2023-07-02T10:59:00;4.90;;;3.00;;
42478;SDS011;28110;47.080;9.476;2023-07-02T11:01:26;4.23;;;2.90;;
42478;SDS011;28110;47.080;9.476;2023-07-02T11:04:00;5.72;;;3.30;;
42478;SDS011;28110;47.080;9.476;2023-07-02T11:06:27;5.20;;;3.15;;
42478;SDS011;28110;47.080;9.476;2023-07-02T11:08:54;4.25;;;2.80;;
42478;SDS011;28110;47.080;9.476;2023-07-02T11:11:20;13.55;;;3.13;;
42478;SDS011;28110;47.080;9.476;2023-07-02T11:13:47;4.10;;;2.90;;
42478;SDS011;28110;47.080;9.476;2023-07-02T11:16:25;5.50;;;2.70;;
42478;SDS011;28110;47.080;9.476;2023-07-02T11:18:53;3.97;;;2.30;;
42478;SDS011;28110;47.080;9.476;2023-07-02T11:21:31;4.70;;;3.30;;
42478;SDS011;28110;47.080;9.476;2023-07-02T11:24:03;3.37;;;2.70;;
42478;SDS011;28110;47.080;9.476;2023-07-02T11:26:40;3.25;;;2.42;;
42478;SDS011;28110;47.080;9.476;2023-07-02T11:29:12;4.15;;;2.35;;
42478;SDS011;28110;47.080;9.476;2023-07-02T11:31:43;6.83;;;2.33;;
42478;SDS011;28110;47.080;9.476;2023-07-02T11:34:15;6.60;;;3.22;;
42478;SDS011;28110;47.080;9.476;2023-07-02T11:36:41;4.18;;;2.90;;
42478;SDS011;28110;47.080;9.476;2023-07-02T11:39:07;5.17;;;3.33;;
42478;SDS011;28110;47.080;9.476;2023-07-02T11:41:42;4.00;;;3.00;;
42478;SDS011;28110;47.080;9.476;2023-07-02T11:44:09;5.95;;;3.70;;
42478;SDS011;28110;47.080;9.476;2023-07-02T11:46:35;4.88;;;3.30;;
42478;SDS011;28110;47.080;9.476;2023-07-02T11:49:01;5.23;;;3.37;;
42478;SDS011;28110;47.080;9.476;2023-07-02T11:51:27;5.20;;;3.50;;
42478;SDS011;28110;47.080;9.476;2023-07-02T11:53:53;11.30;;;3.55;;
42478;SDS011;28110;47.080;9.476;2023-07-02T11:56:18;6.07;;;3.80;;
42478;SDS011;28110;47.080;9.476;2023-07-02T11:58:44;5.80;;;3.63;;
42478;SDS011;28110;47.080;9.476;2023-07-02T12:01:09;7.47;;;3.93;;
42478;SDS011;28110;47.080;9.476;2023-07-02T12:03:35;6.00;;;4.00;;
42478;SDS011;28110;47.080;9.476;2023-07-02T12:06:00;10.67;;;4.33;;
42478;SDS011;28110;47.080;9.476;2023-07-02T12:08:26;95.60;;;7.32;;
42478;SDS011;28110;47.080;9.476;2023-07-02T12:10:52;8.43;;;4.93;;
42478;SDS011;28110;47.080;9.476;2023-07-02T12:13:17;7.50;;;4.38;;
42478;SDS011;28110;47.080;9.476;2023-07-02T12:15:46;6.95;;;4.07;;
42478;SDS011;28110;47.080;9.476;2023-07-02T12:18:12;6.93;;;4.03;;
42478;SDS011;28110;47.080;9.476;2023-07-02T12:20:39;6.95;;;3.88;;
42478;SDS011;28110;47.080;9.476;2023-07-02T12:23:05;9.10;;;5.03;;
42478;SDS011;28110;47.080;9.476;2023-07-02T12:25:30;6.95;;;4.60;;
42478;SDS011;28110;47.080;9.476;2023-07-02T12:27:56;7.13;;;4.83;;
42478;SDS011;28110;47.080;9.476;2023-07-02T12:30:22;7.13;;;4.75;;
42478;SDS011;28110;47.080;9.476;2023-07-02T12:32:47;6.87;;;4.53;;
42478;SDS011;28110;47.080;9.476;2023-07-02T12:35:13;9.48;;;4.72;;
42478;SDS011;28110;47.080;9.476;2023-07-02T12:37:45;6.83;;;4.93;;
42478;SDS011;28110;47.080;9.476;2023-07-02T12:40:13;7.55;;;4.50;;
42478;SDS011;28110;47.080;9.476;2023-07-02T12:42:43;6.47;;;4.25;;
42478;SDS011;28110;47.080;9.476;2023-07-02T12:45:09;6.33;;;4.40;;
42478;SDS011;28110;47.080;9.476;2023-07-02T12:47:36;7.90;;;5.00;;
42478;SDS011;28110;47.080;9.476;2023-07-02T12:50:03;10.73;;;5.18;;
42478;SDS011;28110;47.080;9.476;2023-07-02T12:52:29;6.18;;;4.50;;
42478;SDS011;28110;47.080;9.476;2023-07-02T12:54:55;5.87;;;4.40;;
42478;SDS011;28110;47.080;9.476;2023-07-02T12:57:20;6.70;;;4.15;;
42478;SDS011;28110;47.080;9.476;2023-07-02T12:59:46;6.67;;;4.50;;
42478;SDS011;28110;47.080;9.476;2023-07-02T13:02:11;9.13;;;4.50;;
42478;SDS011;28110;47.080;9.476;2023-07-02T13:04:37;6.38;;;4.50;;
42478;SDS011;28110;47.080;9.476;2023-07-02T13:07:03;10.63;;;5.57;;
42478;SDS011;28110;47.080;9.476;2023-07-02T13:09:29;9.73;;;4.40;;
42478;SDS011;28110;47.080;9.476;2023-07-02T13:11:55;7.27;;;4.90;;
42478;SDS011;28110;47.080;9.476;2023-07-02T13:14:20;11.60;;;4.82;;
42478;SDS011;28110;47.080;9.476;2023-07-02T13:16:46;15.13;;;5.30;;
42478;SDS011;28110;47.080;9.476;2023-07-02T13:19:12;7.87;;;4.70;;
42478;SDS011;28110;47.080;9.476;2023-07-02T13:21:38;9.57;;;5.38;;
42478;SDS011;28110;47.080;9.476;2023-07-02T13:24:03;18.47;;;5.70;;
42478;SDS011;28110;47.080;9.476;2023-07-02T13:26:29;14.10;;;5.20;;
42478;SDS011;28110;47.080;9.476;2023-07-02T13:28:54;9.00;;;5.10;;
42478;SDS011;28110;47.080;9.476;2023-07-02T13:31:20;8.88;;;5.20;;
42478;SDS011;28110;47.080;9.476;2023-07-02T13:33:46;8.10;;;5.67;;
42478;SDS011;28110;47.080;9.476;2023-07-02T13:36:11;14.23;;;5.20;;
42478;SDS011;28110;47.080;9.476;2023-07-02T13:38:37;7.07;;;4.55;;
42478;SDS011;28110;47.080;9.476;2023-07-02T13:41:03;7.73;;;5.37;;
42478;SDS011;28110;47.080;9.476;2023-07-02T13:43:28;11.03;;;5.53;;
42478;SDS011;28110;47.080;9.476;2023-07-02T13:45:54;11.63;;;5.17;;
42478;SDS011;28110;47.080;9.476;2023-07-02T13:48:19;9.93;;;5.20;;
42478;SDS011;28110;47.080;9.476;2023-07-02T13:50:45;15.48;;;5.43;;
42478;SDS011;28110;47.080;9.476;2023-07-02T13:53:10;11.47;;;5.30;;
42478;SDS011;28110;47.080;9.476;2023-07-02T13:55:36;9.60;;;5.67;;
42478;SDS011;28110;47.080;9.476;2023-07-02T13:58:01;12.27;;;5.50;;
42478;SDS011;28110;47.080;9.476;2023-07-02T14:00:27;9.27;;;5.60;;
42478;SDS011;28110;47.080;9.476;2023-07-02T14:02:53;8.82;;;5.07;;
42478;SDS011;28110;47.080;9.476;2023-07-02T14:05:19;9.23;;;5.07;;
42478;SDS011;28110;47.080;9.476;2023-07-02T14:07:45;10.57;;;4.78;;
42478;SDS011;28110;47.080;9.476;2023-07-02T14:10:12;6.88;;;4.40;;
42478;SDS011;28110;47.080;9.476;2023-07-02T14:12:38;8.45;;;4.57;;
42478;SDS011;28110;47.080;9.476;2023-07-02T14:15:05;6.70;;;4.68;;
42478;SDS011;28110;47.080;9.476;2023-07-02T14:17:31;9.13;;;4.83;;
42478;SDS011;28110;47.080;9.476;2023-07-02T14:19:57;7.80;;;4.60;;
42478;SDS011;28110;47.080;9.476;2023-07-02T14:22:22;7.22;;;4.38;;
42478;SDS011;28110;47.080;9.476;2023-07-02T14:24:48;7.93;;;4.77;;
42478;SDS011;28110;47.080;9.476;2023-07-02T14:27:13;7.37;;;4.67;;
42478;SDS011;28110;47.080;9.476;2023-07-02T14:29:39;9.68;;;4.07;;
42478;SDS011;28110;47.080;9.476;2023-07-02T14:32:05;7.10;;;4.27;;
42478;SDS011;28110;47.080;9.476;2023-07-02T14:34:31;6.45;;;4.32;;
42478;SDS011;28110;47.080;9.476;2023-07-02T14:36:57;6.50;;;3.97;;
42478;SDS011;28110;47.080;9.476;2023-07-02T14:39:23;8.27;;;4.78;;
42478;SDS011;28110;47.080;9.476;2023-07-02T14:41:48;6.50;;;3.80;;
42478;SDS011;28110;47.080;9.476;2023-07-02T14:44:14;6.55;;;3.67;;
42478;SDS011;28110;47.080;9.476;2023-07-02T14:46:40;5.40;;;3.63;;
42478;SDS011;28110;47.080;9.476;2023-07-02T14:49:07;6.00;;;4.13;;
42478;SDS011;28110;47.080;9.476;2023-07-02T14:51:33;7.93;;;4.28;;
42478;SDS011;28110;47.080;9.476;2023-07-02T14:53:59;4.97;;;3.70;;
42478;SDS011;28110;47.080;9.476;2023-07-02T14:56:28;8.52;;;4.07;;